AirNav   Everest Fuels
 
 850 users online  

0IA2 Audubon County Memorial Hospital Heliport
Audubon, Iowa, USA

GOING TO AUDUBON?


FAA INFORMATION EFFECTIVE 02 JANUARY 2020

Location

FAA Identifier: 0IA2
Lat/Long: 41-42-53.4100N 094-56-15.7200W
41-42.890167N 094-56.262000W
41.7148361,-94.9377000
(estimated)
Elevation: 1320 ft. / 402 m (estimated)
Variation: 05E (1985)
Time zone: UTC -6 (UTC -5 during Daylight Saving Time)
Zip code: 50025

Heliport Operations

Heliport use: Private use, MEDICAL.
Activation date: 03/1990
Control tower: no
ARTCC: MINNEAPOLIS CENTER
FSS: FORT DODGE FLIGHT SERVICE STATION
Attendance: CONTINUOUS
Wind indicator: lighted
Segmented circle: no

Heliport Communications

WX AWOS-3 at ADU (1.1 nm SE): 118.075 (712-563-2101)
WX AWOS-3 at AIO (19 nm S): 127.825 (712-243-2748)
WX AWOS-3 at HNR (20 nm SW): 118.325 (712-744-4400)

Nearby radio navigation aids

NDB name  Hdg/Dist  Freq  Var  ID
JEFFERSON233/32.139103EEFW . ..-. .--

Heliport Services

Runway Information

Helipad H1

Dimensions: 60 x 50 ft. / 18 x 15 m
Surface: concrete
Latitude: 41-42.890167N
Longitude: 094-56.262000W
Elevation: 1320.0 ft.
Traffic pattern: leftleft

Heliport Ownership and Management from official FAA records

Ownership: Publicly-owned
Owner: AUDUBON COUNTY
515 PACIFIC AV.
AUDUBON, IA 50025
Phone 712-563-2611
Manager: SUZANNE L. COONER
515 PACIFIC AV
AUDUBON, IA 50025
Phone 712-563-5301
DALE WILLENBORG, BLDG SUPERINTENDENT.

Additional Remarks

A52-H1 HAS BLDGS 1000' FM PAD ALL QUADRANTS.
EMERGENCY HELICOPTER TRANSPORT
HELIPAD IS LOCATED NEXT TO OUR EMERGENCY DEPARTMENT
FOR CD CTC MINNEAPOLIS ARTCC AT 651-463-5588.

Instrument Procedures

There are no published instrument procedures at 0IA2.

Some nearby airports with instrument procedures:

KADU - Audubon County Airport (1 nm SE)
KAIO - Atlantic Municipal Airport (19 nm S)
KHNR - Harlan Municipal Airport (20 nm SW)
KCIN - Arthur N Neu Airport (21 nm N)
KGCT - Guthrie County Regional Airport (23 nm E)
 
Loc | Ops | Rwys | IFR | FBO | Links
Com | Nav | Svcs | Stats | Notes
Area around 0IA2 (Audubon County Memorial Hospital Heliport)
 
Road maps at: MapQuest Bing Google
 
Aerial photo
No photo
 
Sectional chart

 
Airport distance calculator
Flying to Audubon County Memorial Hospital Heliport? Find the distance to fly.

From to 0IA2

Sunrise and sunset
Times for 25-Jan-2020
 Local
(UTC-6)
 Zulu
(UTC)
Morning civil twilight07:0913:09
Sunrise07:3913:39
Sunset17:2523:25
Evening civil twilight17:5523:55

Current date and time
Zulu (UTC)  26-Jan-2020 05:03:32
Local (UTC-6)  25-Jan-2020 23:03:32
 
METAR
KADU 260455Z AUTO 23006KT 3/4SM BR OVC002 M03/M04 A2999 RMK AO2
KAIO 
19nm S 
260455Z AUTO 24009KT 1 3/4SM BR OVC002 M03/M03 A3000 RMK AO2
KHNR 
19nm SW 
260455Z AUTO 23009KT 1 3/4SM BR OVC002 M03/M03 A3000 RMK AO2
TAF
KOMA 
49nm SW 
251829Z 2518/2618 VRB03KT P6SM SCT025 FM251900 VRB03KT P6SM OVC011 TEMPO 2519/2521 OVC008 FM260100 VRB04KT 6SM BR OVC006 FM260600 VRB04KT 2SM BR OVC005 TEMPO 2608/2612 3/4SM BR OVC003 FM261600 VRB04KT 5SM BR SCT010
NOTAMs
Click for the latest NOTAMs
NOTAMs are issued by the DoD/FAA and will open in a separate window not controlled by AirNav.

 

 
 

Would you like to see your business listed on this page?

 If your business provides an interesting product or service to pilots, flight crews, aircraft, or users of the Audubon County Memorial Hospital Heliport, you should consider listing it here.  To start the listing process, click on the button below
 
Add a business
 

Other Pages about Audubon County Memorial Hospital Heliport

Update a link
 
Copyright © AirNav, LLC. All rights reserved. Privacy Policy  Contact